createdAt,value
2019-05-14T00:01:28.303Z,85.50
2019-05-14T00:03:58.648Z,85.50
2019-05-14T00:06:31.039Z,85.40
2019-05-14T00:09:01.472Z,85.70
2019-05-14T00:11:33.464Z,86.00
2019-05-14T00:14:04.086Z,85.90
2019-05-14T00:16:34.412Z,85.90
2019-05-14T00:19:05.831Z,86.30
2019-05-14T00:21:36.165Z,86.40
2019-05-14T00:24:06.507Z,86.40
2019-05-14T00:26:51.710Z,86.60
2019-05-14T00:29:22.182Z,86.70
2019-05-14T00:31:52.516Z,87.10
2019-05-14T00:34:22.860Z,87.10
2019-05-14T00:36:53.196Z,87.20
2019-05-14T00:39:23.545Z,87.90
2019-05-14T00:41:53.861Z,87.70
2019-05-14T00:44:24.212Z,87.80
2019-05-14T00:46:54.547Z,87.40
2019-05-14T00:49:24.898Z,87.80
2019-05-14T00:51:55.233Z,88.00
2019-05-14T00:54:25.851Z,88.10
2019-05-14T00:56:56.183Z,88.00
2019-05-14T00:59:26.527Z,88.90
2019-05-14T01:01:56.857Z,89.10
2019-05-14T01:04:27.203Z,88.90
2019-05-14T01:06:57.537Z,89.70
2019-05-14T01:09:28.052Z,89.30
2019-05-14T01:11:58.363Z,89.60
2019-05-14T01:14:28.707Z,89.30
2019-05-14T01:16:59.108Z,89.50
2019-05-14T01:19:31.513Z,89.40
2019-05-14T01:22:01.862Z,89.60
2019-05-14T01:24:32.386Z,89.60
2019-05-14T01:27:03.646Z,89.90
2019-05-14T01:29:33.998Z,89.90
2019-05-14T01:32:04.323Z,89.80
2019-05-14T01:34:34.681Z,89.80
2019-05-14T01:37:05.001Z,90.00
2019-05-14T01:39:35.354Z,90.10
2019-05-14T01:42:05.680Z,90.20
2019-05-14T01:44:36.025Z,90.10
2019-05-14T01:47:06.347Z,90.10
2019-05-14T01:49:36.696Z,90.10
2019-05-14T01:52:07.757Z,90.30
2019-05-14T01:54:38.107Z,90.60
2019-05-14T01:57:08.433Z,90.30
2019-05-14T01:59:38.787Z,90.20
2019-05-14T02:02:11.380Z,90.40
2019-05-14T02:04:42.781Z,90.60
2019-05-14T02:07:16.035Z,90.40
2019-05-14T02:09:45.326Z,90.80
2019-05-14T02:12:15.658Z,90.50
2019-05-14T02:14:45.997Z,90.50
2019-05-14T02:17:16.327Z,90.50
2019-05-14T02:19:46.666Z,90.70
2019-05-14T02:22:16.993Z,90.70
2019-05-14T02:24:47.327Z,90.70
2019-05-14T02:27:17.652Z,90.70
2019-05-14T02:29:47.998Z,90.90
2019-05-14T02:32:18.508Z,90.80
2019-05-14T02:34:55.068Z,91.00
2019-05-14T02:37:44.801Z,91.00
2019-05-14T02:40:16.361Z,91.10
2019-05-14T02:42:49.480Z,91.00
2019-05-14T02:45:19.769Z,90.90
2019-05-14T02:47:50.678Z,91.00
2019-05-14T02:50:21.232Z,91.10
2019-05-14T02:52:51.555Z,91.30
2019-05-14T02:55:21.906Z,91.20
2019-05-14T02:57:52.235Z,91.20
2019-05-14T03:00:22.580Z,91.20
2019-05-14T03:02:52.923Z,91.00
2019-05-14T03:05:23.260Z,91.00
2019-05-14T03:07:53.584Z,91.00
2019-05-14T03:10:24.002Z,91.10
2019-05-14T03:12:54.408Z,91.10
2019-05-14T03:15:24.757Z,91.10
2019-05-14T03:18:14.422Z,91.10
2019-05-14T03:20:44.753Z,91.10
2019-05-14T03:23:18.611Z,91.20
2019-05-14T03:25:49.335Z,91.20
2019-05-14T03:28:20.055Z,91.60
2019-05-14T03:30:52.369Z,91.20
2019-05-14T03:33:22.810Z,91.60
2019-05-14T03:36:01.309Z,91.30
2019-05-14T03:38:29.356Z,91.40
2019-05-14T03:41:00.276Z,91.50
2019-05-14T03:43:31.040Z,91.50
2019-05-14T03:46:01.455Z,91.50
2019-05-14T03:48:31.855Z,91.60
2019-05-14T03:51:02.451Z,91.60
2019-05-14T03:53:52.268Z,91.70
2019-05-14T03:56:05.954Z,91.70
2019-05-14T03:58:39.198Z,91.70
2019-05-14T04:01:09.673Z,91.70
2019-05-14T04:03:40.222Z,91.70
2019-05-14T04:06:11.820Z,91.60
2019-05-14T04:08:44.153Z,91.70
2019-05-14T04:11:20.225Z,91.70
2019-05-14T04:13:52.788Z,91.70
2019-05-14T04:16:24.444Z,91.70
2019-05-14T04:18:59.600Z,91.70
2019-05-14T04:21:36.086Z,91.70
2019-05-14T04:24:09.728Z,91.60
2019-05-14T04:26:56.139Z,91.70
2019-05-14T04:29:19.445Z,91.70
2019-05-14T04:31:50.431Z,91.70
2019-05-14T04:34:20.910Z,91.60
2019-05-14T04:36:51.313Z,91.60
2019-05-14T04:39:21.635Z,91.60
2019-05-14T04:42:00.024Z,91.60
2019-05-14T04:44:30.541Z,91.60
2019-05-14T04:47:21.543Z,91.60
2019-05-14T04:49:32.974Z,91.50
2019-05-14T04:52:04.449Z,91.50
2019-05-14T04:54:35.041Z,91.50
2019-05-14T04:57:05.386Z,91.40
2019-05-14T04:59:39.342Z,91.30
2019-05-14T05:02:09.579Z,91.30
2019-05-14T05:04:41.283Z,91.30
2019-05-14T05:07:11.899Z,91.20
2019-05-14T05:09:42.256Z,91.20
2019-05-14T05:12:12.562Z,91.00
2019-05-14T05:14:42.901Z,91.00
2019-05-14T05:17:13.230Z,91.30
2019-05-14T05:19:45.815Z,91.10
2019-05-14T05:22:15.587Z,91.10
2019-05-14T05:24:48.286Z,91.00
2019-05-14T05:27:18.561Z,90.80
2019-05-14T05:29:48.966Z,90.60
2019-05-14T05:32:19.650Z,90.30
2019-05-14T05:34:50.009Z,86.30
2019-05-14T05:37:20.342Z,83.90
2019-05-14T05:39:50.686Z,81.50
2019-05-14T05:42:21.029Z,79.00
2019-05-14T05:44:51.359Z,76.70
2019-05-14T05:47:21.699Z,76.20
2019-05-14T05:49:52.035Z,75.00
2019-05-14T05:52:22.373Z,72.80
2019-05-14T05:54:52.707Z,74.70
2019-05-14T05:57:23.038Z,75.00
2019-05-14T05:59:53.390Z,76.60
2019-05-14T06:02:23.729Z,75.30
2019-05-14T06:04:54.137Z,76.10
2019-05-14T06:07:25.548Z,76.70
2019-05-14T06:09:55.888Z,76.90
2019-05-14T06:12:26.229Z,74.70
2019-05-14T06:14:57.922Z,74.00
2019-05-14T06:17:28.622Z,74.20
2019-05-14T06:19:59.341Z,74.80
2019-05-14T06:22:29.674Z,73.70
2019-05-14T06:25:00.015Z,72.50
2019-05-14T06:27:30.358Z,72.10
2019-05-14T06:30:00.703Z,72.10
2019-05-14T06:32:31.034Z,71.60
2019-05-14T06:35:01.374Z,69.20
2019-05-14T06:37:31.711Z,67.70
2019-05-14T06:40:02.087Z,63.70
2019-05-14T06:42:33.407Z,60.80
2019-05-14T06:45:03.901Z,60.70
2019-05-14T06:47:34.239Z,59.30
2019-05-14T06:50:08.498Z,59.40
2019-05-14T06:52:39.052Z,57.00
2019-05-14T06:55:09.579Z,55.70
2019-05-14T06:57:39.923Z,56.00
2019-05-14T07:00:12.489Z,53.70
2019-05-14T07:02:44.235Z,55.20
2019-05-14T07:05:14.826Z,53.60
2019-05-14T07:07:45.164Z,53.60
2019-05-14T07:10:19.426Z,48.00
2019-05-14T07:12:49.926Z,50.60
2019-05-14T07:15:20.625Z,48.10
2019-05-14T07:17:50.966Z,51.50
2019-05-14T07:20:21.423Z,49.70
2019-05-14T07:22:51.754Z,49.20
2019-05-14T07:25:22.103Z,49.00
2019-05-14T07:27:52.515Z,49.10
2019-05-14T07:30:23.088Z,48.00
2019-05-14T07:32:53.698Z,48.80
2019-05-14T07:35:24.052Z,45.80
2019-05-14T07:37:54.401Z,48.20
2019-05-14T07:40:29.080Z,49.20
2019-05-14T07:42:59.473Z,50.10
2019-05-14T07:45:33.346Z,49.80
2019-05-14T07:48:02.832Z,49.90
2019-05-14T07:50:33.168Z,50.70
2019-05-14T07:53:04.240Z,51.60
2019-05-14T07:55:34.594Z,52.40
2019-05-14T07:58:04.930Z,52.90
2019-05-14T08:00:35.271Z,52.10
2019-05-14T08:03:08.106Z,52.50
2019-05-14T08:05:38.966Z,51.20
2019-05-14T08:08:10.430Z,52.40
2019-05-14T08:10:40.775Z,51.20
2019-05-14T08:13:13.816Z,51.30
2019-05-14T08:15:44.183Z,51.30
2019-05-14T08:18:14.631Z,52.40
2019-05-14T08:20:44.957Z,50.90
2019-05-14T08:23:15.295Z,48.60
2019-05-14T08:25:47.897Z,48.80
2019-05-14T08:28:18.771Z,46.70
2019-05-14T08:30:49.731Z,44.70
2019-05-14T08:33:20.071Z,45.80
2019-05-14T08:35:50.429Z,44.30
2019-05-14T08:38:20.752Z,44.60
2019-05-14T08:40:51.103Z,45.10
2019-05-14T08:43:21.442Z,41.40
2019-05-14T08:45:51.778Z,43.90
2019-05-14T08:48:22.482Z,42.30
2019-05-14T08:50:52.831Z,42.30
2019-05-14T08:53:23.610Z,41.60
2019-05-14T08:55:53.948Z,41.60
2019-05-14T08:58:24.357Z,42.40
2019-05-14T09:00:54.916Z,41.40
2019-05-14T09:03:28.557Z,40.60
2019-05-14T09:06:00.545Z,41.30
2019-05-14T09:08:29.847Z,40.40
2019-05-14T09:11:00.207Z,42.00
2019-05-14T09:13:30.719Z,40.90
2019-05-14T09:16:01.100Z,40.70
2019-05-14T09:18:31.828Z,40.60
2019-05-14T09:21:02.200Z,41.40
2019-05-14T09:23:32.697Z,38.70
2019-05-14T09:26:03.064Z,39.10
2019-05-14T09:28:33.452Z,39.10
2019-05-14T09:31:03.826Z,40.00
2019-05-14T09:33:34.336Z,36.30
2019-05-14T09:36:17.508Z,36.50
2019-05-14T09:38:41.631Z,38.30
2019-05-14T09:41:14.907Z,37.80
2019-05-14T09:43:41.022Z,38.80
2019-05-14T09:46:11.394Z,39.00
2019-05-14T09:48:42.059Z,39.30
2019-05-14T09:51:12.497Z,38.70
2019-05-14T09:53:42.895Z,37.40
2019-05-14T09:56:13.271Z,38.00
2019-05-14T09:58:43.675Z,39.10
2019-05-14T10:01:14.126Z,39.20
2019-05-14T10:03:44.590Z,39.20
2019-05-14T10:06:14.959Z,40.20
2019-05-14T10:08:45.350Z,37.90
2019-05-14T10:11:15.713Z,37.90
2019-05-14T10:13:48.161Z,38.60
2019-05-14T10:16:19.078Z,38.50
2019-05-14T10:18:52.679Z,39.60
2019-05-14T10:21:21.629Z,37.40
2019-05-14T10:23:52.036Z,37.80
2019-05-14T10:26:22.407Z,38.40
2019-05-14T10:28:52.798Z,39.10
2019-05-14T10:31:23.181Z,39.20
2019-05-14T10:33:53.569Z,38.40
2019-05-14T10:36:23.935Z,36.60
2019-05-14T10:38:54.321Z,39.00
2019-05-14T10:41:24.685Z,36.80
2019-05-14T10:43:55.190Z,37.40
2019-05-14T10:46:25.555Z,37.70
2019-05-14T10:49:00.252Z,37.30
2019-05-14T10:51:28.965Z,38.30
2019-05-14T10:53:59.763Z,38.90
2019-05-14T10:56:30.222Z,37.10
2019-05-14T10:59:00.599Z,36.40
2019-05-14T11:01:32.059Z,36.60
2019-05-14T11:04:02.457Z,36.50
2019-05-14T11:06:32.826Z,37.70
2019-05-14T11:09:04.856Z,37.70
2019-05-14T11:11:35.212Z,37.00
2019-05-14T11:14:05.744Z,37.00
2019-05-14T11:16:36.164Z,35.00
2019-05-14T11:19:09.516Z,35.30
2019-05-14T11:21:40.023Z,35.50
2019-05-14T11:24:10.415Z,35.80
2019-05-14T11:26:40.850Z,36.10
2019-05-14T11:29:11.227Z,37.20
2019-05-14T11:31:41.665Z,37.20
2019-05-14T11:34:12.051Z,37.70
2019-05-14T11:36:42.411Z,36.90
2019-05-14T11:39:12.802Z,36.60
2019-05-14T11:41:43.238Z,35.00
2019-05-14T11:44:13.638Z,36.10
2019-05-14T11:46:56.310Z,37.50
2019-05-14T11:49:19.404Z,37.70
2019-05-14T11:52:06.136Z,35.60
2019-05-14T11:54:23.171Z,35.50
2019-05-14T11:56:53.562Z,34.20
2019-05-14T11:59:25.027Z,33.70
2019-05-14T12:01:55.403Z,34.40
2019-05-14T12:04:28.220Z,35.70
2019-05-14T12:06:59.129Z,36.50
2019-05-14T12:09:29.863Z,37.60
2019-05-14T12:12:00.240Z,38.10
2019-05-14T12:14:30.791Z,38.00
2019-05-14T12:17:01.166Z,36.90
2019-05-14T12:19:31.546Z,37.20
2019-05-14T12:22:07.631Z,37.60
2019-05-14T12:24:34.024Z,37.60
2019-05-14T12:27:04.581Z,37.70
2019-05-14T12:29:34.958Z,38.10
2019-05-14T12:32:05.376Z,37.10
2019-05-14T12:34:38.508Z,39.40
2019-05-14T12:37:09.083Z,40.00
2019-05-14T12:39:39.571Z,38.40
2019-05-14T12:42:10.780Z,37.60
2019-05-14T12:44:41.623Z,39.00
2019-05-14T12:47:12.013Z,39.40
2019-05-14T12:49:42.387Z,40.00
2019-05-14T12:52:22.292Z,40.60
2019-05-14T12:54:44.907Z,40.90
2019-05-14T12:57:15.299Z,40.80
2019-05-14T12:59:45.674Z,40.30
2019-05-14T13:02:18.544Z,40.40
2019-05-14T13:04:49.116Z,40.70
2019-05-14T13:07:19.484Z,40.90
2019-05-14T13:09:50.933Z,41.20
2019-05-14T13:12:21.312Z,41.10
2019-05-14T13:14:51.688Z,41.20
2019-05-14T13:17:22.081Z,40.60
2019-05-14T13:19:52.443Z,40.20
2019-05-14T13:22:38.253Z,41.00
2019-05-14T13:24:55.187Z,40.00
2019-05-14T13:27:28.615Z,40.20
2019-05-14T13:29:59.219Z,40.60
2019-05-14T13:32:29.615Z,41.00
2019-05-14T13:34:59.982Z,40.80
2019-05-14T13:37:31.338Z,41.00
2019-05-14T13:40:01.711Z,41.00
2019-05-14T13:42:32.096Z,41.80
2019-05-14T13:45:02.464Z,41.70
2019-05-14T13:47:32.851Z,41.80
2019-05-14T13:50:04.362Z,41.50
2019-05-14T13:52:34.812Z,41.50
2019-05-14T13:55:09.295Z,41.30
2019-05-14T13:57:39.797Z,41.60
2019-05-14T14:00:12.241Z,41.40
2019-05-14T14:02:42.651Z,41.60
2019-05-14T14:05:13.298Z,42.10
2019-05-14T14:07:44.945Z,41.80
2019-05-14T14:10:15.780Z,41.80
2019-05-14T14:12:49.246Z,41.40
2019-05-14T14:15:18.319Z,41.40
2019-05-14T14:17:49.619Z,41.70
2019-05-14T14:20:21.121Z,41.80
2019-05-14T14:22:51.495Z,42.10
2019-05-14T14:25:21.878Z,42.10
2019-05-14T14:27:52.237Z,41.60
2019-05-14T14:30:22.694Z,41.60
2019-05-14T14:32:53.107Z,41.80
2019-05-14T14:35:24.741Z,42.10
2019-05-14T14:37:55.319Z,41.10
2019-05-14T14:40:25.694Z,40.90
2019-05-14T14:42:59.027Z,41.10
2019-05-14T14:45:29.307Z,40.70
2019-05-14T14:48:01.444Z,40.70
2019-05-14T14:50:32.020Z,41.40
2019-05-14T14:53:02.414Z,41.20
2019-05-14T14:55:32.873Z,41.00
2019-05-14T14:58:03.262Z,41.50
2019-05-14T15:00:33.720Z,40.90
2019-05-14T15:03:04.101Z,41.00
2019-05-14T15:05:34.486Z,41.10
2019-05-14T15:08:04.939Z,41.30
2019-05-14T15:10:35.329Z,40.40
2019-05-14T15:13:05.711Z,41.00
2019-05-14T15:15:36.091Z,41.40
2019-05-14T15:18:09.492Z,41.20
2019-05-14T15:20:38.600Z,40.90
2019-05-14T15:23:10.115Z,40.40
2019-05-14T15:25:40.462Z,40.50
2019-05-14T15:28:10.817Z,40.70
2019-05-14T15:30:41.607Z,41.40
2019-05-14T15:33:12.000Z,42.10
2019-05-14T15:35:42.363Z,42.30
2019-05-14T15:38:13.714Z,42.70
2019-05-14T15:40:44.105Z,43.30
2019-05-14T15:43:14.475Z,43.30
2019-05-14T15:45:44.873Z,43.00
2019-05-14T15:48:15.244Z,43.00
2019-05-14T15:50:45.708Z,43.60
2019-05-14T15:53:16.075Z,43.70
2019-05-14T15:55:46.448Z,43.40
2019-05-14T15:58:21.410Z,43.10
2019-05-14T16:00:49.208Z,43.00
2019-05-14T16:03:19.646Z,43.20
2019-05-14T16:05:50.031Z,43.60
2019-05-14T16:08:22.711Z,43.50
2019-05-14T16:10:52.539Z,43.70
2019-05-14T16:13:22.917Z,43.80
2019-05-14T16:15:53.287Z,44.10
2019-05-14T16:18:24.684Z,44.10
2019-05-14T16:20:55.059Z,43.80
2019-05-14T16:23:28.192Z,44.30
2019-05-14T16:25:59.073Z,44.50
2019-05-14T16:28:29.551Z,44.90
2019-05-14T16:30:59.925Z,44.70
2019-05-14T16:33:30.377Z,44.70
2019-05-14T16:36:00.739Z,44.40
2019-05-14T16:38:32.350Z,44.50
2019-05-14T16:41:02.732Z,44.70
2019-05-14T16:43:33.157Z,44.70
2019-05-14T16:46:03.542Z,44.90
2019-05-14T16:48:33.931Z,44.70
2019-05-14T16:51:04.303Z,44.60
2019-05-14T16:53:34.686Z,44.50
2019-05-14T16:56:05.059Z,44.70
2019-05-14T16:58:35.475Z,44.50
2019-05-14T17:01:09.735Z,44.50
2019-05-14T17:03:39.671Z,45.10
2019-05-14T17:06:10.296Z,45.00
2019-05-14T17:08:40.684Z,45.60
2019-05-14T17:11:11.051Z,44.50
2019-05-14T17:13:41.791Z,44.10
2019-05-14T17:16:12.171Z,44.10
2019-05-14T17:18:42.564Z,43.90
2019-05-14T17:21:12.926Z,43.90
2019-05-14T17:23:43.491Z,44.40
2019-05-14T17:26:13.859Z,44.40
2019-05-14T17:28:44.255Z,43.30
2019-05-14T17:31:14.637Z,44.90
2019-05-14T17:33:45.026Z,44.30
2019-05-14T17:36:15.404Z,44.10
2019-05-14T17:38:45.790Z,44.70
2019-05-14T17:41:16.175Z,45.40
2019-05-14T17:43:48.784Z,45.80
2019-05-14T17:46:18.630Z,45.60
2019-05-14T17:48:49.023Z,46.30
2019-05-14T17:51:19.378Z,46.50
2019-05-14T17:53:49.760Z,46.40
2019-05-14T17:56:22.778Z,46.80
2019-05-14T17:58:52.229Z,47.00
2019-05-14T18:01:22.604Z,47.80
2019-05-14T18:03:53.007Z,47.70
2019-05-14T18:06:23.388Z,47.50
2019-05-14T18:08:53.841Z,47.80
2019-05-14T18:11:25.180Z,47.90
2019-05-14T18:13:55.579Z,48.10
2019-05-14T18:16:28.393Z,48.70
2019-05-14T18:18:59.102Z,49.00
2019-05-14T18:21:29.543Z,49.00
2019-05-14T18:24:01.259Z,49.30
2019-05-14T18:26:31.634Z,49.80
2019-05-14T18:29:04.523Z,49.90
2019-05-14T18:31:35.167Z,50.10
2019-05-14T18:34:05.568Z,50.50
2019-05-14T18:36:35.931Z,51.20
2019-05-14T18:39:09.316Z,51.10
2019-05-14T18:41:39.205Z,51.50
2019-05-14T18:44:09.682Z,52.10
2019-05-14T18:46:40.073Z,52.70
2019-05-14T18:49:10.463Z,53.10
2019-05-14T18:51:40.835Z,52.90
2019-05-14T18:54:11.223Z,53.00
2019-05-14T18:56:42.667Z,53.70
2019-05-14T18:59:13.060Z,54.20
2019-05-14T19:01:43.436Z,54.50
2019-05-14T19:04:13.891Z,55.00
2019-05-14T19:06:45.238Z,55.70
2019-05-14T19:09:15.618Z,55.80
2019-05-14T19:11:48.062Z,56.40
2019-05-14T19:14:18.794Z,56.80
2019-05-14T19:16:49.338Z,56.90
2019-05-14T19:19:20.657Z,58.10
2019-05-14T19:21:51.189Z,58.10
2019-05-14T19:24:21.568Z,58.70
2019-05-14T19:26:51.941Z,59.00
2019-05-14T19:29:22.337Z,59.50
2019-05-14T19:31:53.771Z,60.20
2019-05-14T19:34:24.162Z,60.70
2019-05-14T19:36:54.542Z,61.40
2019-05-14T19:39:24.919Z,62.00
2019-05-14T19:41:55.290Z,62.30
2019-05-14T19:44:25.689Z,63.40
2019-05-14T19:46:59.197Z,63.60
2019-05-14T19:49:29.210Z,64.50
2019-05-14T19:51:59.579Z,64.70
2019-05-14T19:54:29.970Z,65.40
2019-05-14T19:57:01.045Z,66.20
2019-05-14T19:59:31.520Z,66.60
2019-05-14T20:02:02.014Z,67.20
2019-05-14T20:04:32.411Z,67.30
2019-05-14T20:07:02.790Z,67.80
2019-05-14T20:09:33.169Z,67.90
2019-05-14T20:12:03.574Z,68.20
2019-05-14T20:14:34.036Z,68.30
2019-05-14T20:17:04.406Z,67.80
2019-05-14T20:19:34.794Z,67.60
2019-05-14T20:22:05.158Z,67.60
2019-05-14T20:24:35.552Z,67.70
2019-05-14T20:27:11.809Z,67.70
2019-05-14T20:29:38.141Z,68.10
2019-05-14T20:32:08.757Z,67.80
2019-05-14T20:34:40.330Z,67.90
2019-05-14T20:37:10.770Z,68.80
2019-05-14T20:39:41.167Z,68.90
2019-05-14T20:42:11.535Z,68.90
2019-05-14T20:44:41.968Z,68.80
2019-05-14T20:47:13.413Z,68.40
2019-05-14T20:49:45.642Z,68.70
2019-05-14T20:52:16.016Z,69.30
2019-05-14T20:54:46.408Z,69.40
2019-05-14T20:57:24.307Z,69.60
2019-05-14T20:59:50.128Z,70.10
2019-05-14T21:02:21.618Z,70.40
2019-05-14T21:04:54.475Z,70.40
2019-05-14T21:07:24.210Z,70.50
2019-05-14T21:09:54.708Z,71.50
2019-05-14T21:12:25.122Z,71.90
2019-05-14T21:14:55.561Z,70.80
2019-05-14T21:17:28.099Z,71.40
2019-05-14T21:19:58.125Z,71.20
2019-05-14T21:22:29.147Z,71.60
2019-05-14T21:24:59.763Z,71.80
2019-05-14T21:27:40.819Z,71.50
2019-05-14T21:30:02.571Z,71.40
2019-05-14T21:32:34.548Z,71.80
2019-05-14T21:35:06.431Z,72.10
2019-05-14T21:37:39.412Z,72.30
2019-05-14T21:40:10.442Z,72.30
2019-05-14T21:42:40.862Z,72.80
2019-05-14T21:45:11.606Z,73.00
2019-05-14T21:47:42.041Z,73.50
2019-05-14T21:50:13.111Z,73.20
2019-05-14T21:52:43.527Z,73.60
2019-05-14T21:55:14.097Z,73.80
2019-05-14T21:57:54.178Z,74.00
2019-05-14T22:00:49.095Z,74.20
2019-05-14T22:03:20.795Z,74.50
2019-05-14T22:05:51.874Z,74.80
2019-05-14T22:08:22.283Z,75.30
2019-05-14T22:10:52.723Z,75.20
2019-05-14T22:13:23.135Z,75.30
2019-05-14T22:15:53.580Z,75.50
2019-05-14T22:18:23.999Z,75.70
2019-05-14T22:20:54.445Z,76.10
2019-05-14T22:23:24.857Z,76.30
2019-05-14T22:25:58.202Z,76.90
2019-05-14T22:28:28.875Z,76.90
2019-05-14T22:30:59.333Z,77.40
2019-05-14T22:33:29.750Z,77.60
2019-05-14T22:36:00.187Z,77.90
2019-05-14T22:38:30.603Z,78.10
2019-05-14T22:41:01.057Z,78.40
2019-05-14T22:43:31.471Z,79.60
2019-05-14T22:46:01.909Z,80.10
2019-05-14T22:48:32.357Z,80.40
2019-05-14T22:51:02.787Z,80.50
2019-05-14T22:53:33.191Z,80.70
2019-05-14T22:56:03.640Z,80.90
2019-05-14T22:58:34.053Z,80.80
2019-05-14T23:01:14.351Z,81.60
2019-05-14T23:03:39.369Z,81.20
2019-05-14T23:06:09.100Z,82.20
2019-05-14T23:08:39.618Z,82.10
2019-05-14T23:11:10.059Z,82.20
2019-05-14T23:13:41.453Z,82.60
2019-05-14T23:16:11.956Z,82.70
2019-05-14T23:18:42.368Z,82.70
2019-05-14T23:21:12.909Z,82.80
2019-05-14T23:23:43.318Z,83.00
2019-05-14T23:26:13.750Z,83.60
2019-05-14T23:28:45.979Z,83.40
2019-05-14T23:31:16.285Z,83.80
2019-05-14T23:33:48.863Z,83.60
2019-05-14T23:36:18.998Z,83.40
2019-05-14T23:38:50.126Z,84.90
2019-05-14T23:41:20.561Z,84.20
2019-05-14T23:43:50.972Z,84.10
2019-05-14T23:46:21.409Z,84.50
2019-05-14T23:48:51.833Z,84.80
2019-05-14T23:51:22.273Z,84.70
2019-05-14T23:53:52.688Z,84.60
2019-05-14T23:56:23.324Z,84.80
2019-05-14T23:59:06.178Z,84.90
